sensor_id;sensor_type;location;lat;lon;timestamp;P1;durP1;ratioP1;P2;durP2;ratioP2
60241;SDS011;46103;52.076;113.488;2022-12-11T00:01:31;3.78;;;2.45;;
60241;SDS011;46103;52.076;113.488;2022-12-11T00:04:34;7.53;;;3.30;;
60241;SDS011;46103;52.076;113.488;2022-12-11T00:07:38;7.68;;;2.95;;
60241;SDS011;46103;52.076;113.488;2022-12-11T00:10:48;5.70;;;2.33;;
60241;SDS011;46103;52.076;113.488;2022-12-11T00:13:51;3.85;;;2.50;;
60241;SDS011;46103;52.076;113.488;2022-12-11T00:16:54;5.75;;;2.88;;
60241;SDS011;46103;52.076;113.488;2022-12-11T00:19:57;3.75;;;2.50;;
60241;SDS011;46103;52.076;113.488;2022-12-11T00:23:00;3.83;;;1.98;;
60241;SDS011;46103;52.076;113.488;2022-12-11T00:26:04;5.25;;;2.50;;
60241;SDS011;46103;52.076;113.488;2022-12-11T00:29:09;8.02;;;3.03;;
60241;SDS011;46103;52.076;113.488;2022-12-11T00:32:15;4.47;;;2.60;;
60241;SDS011;46103;52.076;113.488;2022-12-11T00:35:19;3.72;;;3.10;;
60241;SDS011;46103;52.076;113.488;2022-12-11T00:38:23;5.53;;;2.40;;
60241;SDS011;46103;52.076;113.488;2022-12-11T00:41:26;3.40;;;2.13;;
60241;SDS011;46103;52.076;113.488;2022-12-11T00:44:29;6.43;;;2.63;;
60241;SDS011;46103;52.076;113.488;2022-12-11T00:47:32;4.15;;;2.08;;
60241;SDS011;46103;52.076;113.488;2022-12-11T00:50:36;6.72;;;3.75;;
60241;SDS011;46103;52.076;113.488;2022-12-11T00:53:39;3.55;;;2.33;;
60241;SDS011;46103;52.076;113.488;2022-12-11T00:56:43;4.68;;;2.72;;
60241;SDS011;46103;52.076;113.488;2022-12-11T00:59:46;5.55;;;1.80;;
60241;SDS011;46103;52.076;113.488;2022-12-11T01:02:50;8.60;;;3.35;;
60241;SDS011;46103;52.076;113.488;2022-12-11T01:05:56;13.57;;;5.28;;
60241;SDS011;46103;52.076;113.488;2022-12-11T01:08:59;11.68;;;4.63;;
60241;SDS011;46103;52.076;113.488;2022-12-11T01:12:21;9.98;;;2.60;;
60241;SDS011;46103;52.076;113.488;2022-12-11T01:15:25;10.27;;;5.18;;
60241;SDS011;46103;52.076;113.488;2022-12-11T01:18:33;14.32;;;5.43;;
60241;SDS011;46103;52.076;113.488;2022-12-11T01:21:36;12.82;;;4.50;;
60241;SDS011;46103;52.076;113.488;2022-12-11T01:24:39;13.70;;;5.70;;
60241;SDS011;46103;52.076;113.488;2022-12-11T01:27:43;15.52;;;6.20;;
60241;SDS011;46103;52.076;113.488;2022-12-11T01:30:46;9.27;;;4.70;;
60241;SDS011;46103;52.076;113.488;2022-12-11T01:33:52;10.05;;;4.10;;
60241;SDS011;46103;52.076;113.488;2022-12-11T01:36:56;20.98;;;6.75;;
60241;SDS011;46103;52.076;113.488;2022-12-11T01:40:03;13.55;;;4.93;;
60241;SDS011;46103;52.076;113.488;2022-12-11T01:43:09;8.10;;;4.28;;
60241;SDS011;46103;52.076;113.488;2022-12-11T01:46:13;15.55;;;6.60;;
60241;SDS011;46103;52.076;113.488;2022-12-11T01:49:16;7.72;;;4.05;;
60241;SDS011;46103;52.076;113.488;2022-12-11T01:52:22;10.50;;;4.95;;
60241;SDS011;46103;52.076;113.488;2022-12-11T01:55:26;11.00;;;5.13;;
60241;SDS011;46103;52.076;113.488;2022-12-11T01:58:31;9.10;;;4.65;;
60241;SDS011;46103;52.076;113.488;2022-12-11T02:01:50;8.00;;;4.20;;
60241;SDS011;46103;52.076;113.488;2022-12-11T02:05:00;9.32;;;4.50;;
60241;SDS011;46103;52.076;113.488;2022-12-11T02:08:05;14.27;;;3.80;;
60241;SDS011;46103;52.076;113.488;2022-12-11T02:11:13;9.95;;;4.93;;
60241;SDS011;46103;52.076;113.488;2022-12-11T02:14:26;15.27;;;7.60;;
60241;SDS011;46103;52.076;113.488;2022-12-11T02:17:53;23.48;;;10.50;;
60241;SDS011;46103;52.076;113.488;2022-12-11T02:24:50;32.10;;;10.75;;
60241;SDS011;46103;52.076;113.488;2022-12-11T02:34:44;24.00;;;7.20;;
60241;SDS011;46103;52.076;113.488;2022-12-11T02:37:53;18.10;;;6.38;;
60241;SDS011;46103;52.076;113.488;2022-12-11T02:41:00;14.63;;;7.22;;
60241;SDS011;46103;52.076;113.488;2022-12-11T02:44:06;19.50;;;7.93;;
60241;SDS011;46103;52.076;113.488;2022-12-11T02:47:12;17.90;;;7.28;;
60241;SDS011;46103;52.076;113.488;2022-12-11T02:50:18;14.65;;;6.40;;
60241;SDS011;46103;52.076;113.488;2022-12-11T02:53:26;14.38;;;5.53;;
60241;SDS011;46103;52.076;113.488;2022-12-11T02:56:37;22.38;;;9.00;;
60241;SDS011;46103;52.076;113.488;2022-12-11T02:59:47;21.63;;;7.53;;
60241;SDS011;46103;52.076;113.488;2022-12-11T03:02:50;16.23;;;7.38;;
60241;SDS011;46103;52.076;113.488;2022-12-11T03:05:54;22.77;;;7.70;;
60241;SDS011;46103;52.076;113.488;2022-12-11T03:08:58;30.38;;;6.45;;
60241;SDS011;46103;52.076;113.488;2022-12-11T03:12:01;19.83;;;7.90;;
60241;SDS011;46103;52.076;113.488;2022-12-11T03:15:07;12.52;;;6.03;;
60241;SDS011;46103;52.076;113.488;2022-12-11T03:18:38;14.27;;;5.55;;
60241;SDS011;46103;52.076;113.488;2022-12-11T03:21:45;24.48;;;7.57;;
60241;SDS011;46103;52.076;113.488;2022-12-11T03:24:59;17.80;;;5.20;;
60241;SDS011;46103;52.076;113.488;2022-12-11T03:31:22;10.02;;;4.35;;
60241;SDS011;46103;52.076;113.488;2022-12-11T03:34:40;22.08;;;6.13;;
60241;SDS011;46103;52.076;113.488;2022-12-11T03:37:52;11.57;;;4.13;;
60241;SDS011;46103;52.076;113.488;2022-12-11T03:41:01;19.00;;;5.25;;
60241;SDS011;46103;52.076;113.488;2022-12-11T03:44:07;10.38;;;3.30;;
60241;SDS011;46103;52.076;113.488;2022-12-11T03:47:10;20.27;;;5.70;;
60241;SDS011;46103;52.076;113.488;2022-12-11T03:50:19;28.70;;;9.27;;
60241;SDS011;46103;52.076;113.488;2022-12-11T03:53:26;13.73;;;6.07;;
60241;SDS011;46103;52.076;113.488;2022-12-11T03:56:31;17.63;;;6.05;;
60241;SDS011;46103;52.076;113.488;2022-12-11T03:59:40;13.05;;;5.68;;
60241;SDS011;46103;52.076;113.488;2022-12-11T04:02:45;23.10;;;8.07;;
60241;SDS011;46103;52.076;113.488;2022-12-11T04:06:14;26.15;;;6.65;;
60241;SDS011;46103;52.076;113.488;2022-12-11T04:09:18;12.98;;;5.72;;
60241;SDS011;46103;52.076;113.488;2022-12-11T04:12:22;16.08;;;6.57;;
60241;SDS011;46103;52.076;113.488;2022-12-11T04:15:26;9.55;;;4.13;;
60241;SDS011;46103;52.076;113.488;2022-12-11T04:18:29;17.75;;;4.97;;
60241;SDS011;46103;52.076;113.488;2022-12-11T04:21:52;11.18;;;4.32;;
60241;SDS011;46103;52.076;113.488;2022-12-11T04:25:14;8.38;;;4.07;;
60241;SDS011;46103;52.076;113.488;2022-12-11T04:28:18;16.95;;;5.03;;
60241;SDS011;46103;52.076;113.488;2022-12-11T04:31:21;11.52;;;4.95;;
60241;SDS011;46103;52.076;113.488;2022-12-11T04:34:25;18.38;;;6.85;;
60241;SDS011;46103;52.076;113.488;2022-12-11T04:37:29;14.52;;;5.15;;
60241;SDS011;46103;52.076;113.488;2022-12-11T04:40:36;15.60;;;6.07;;
60241;SDS011;46103;52.076;113.488;2022-12-11T04:43:40;12.88;;;5.47;;
60241;SDS011;46103;52.076;113.488;2022-12-11T04:46:47;10.63;;;4.45;;
60241;SDS011;46103;52.076;113.488;2022-12-11T04:49:50;9.80;;;4.22;;
60241;SDS011;46103;52.076;113.488;2022-12-11T04:52:57;12.38;;;4.70;;
60241;SDS011;46103;52.076;113.488;2022-12-11T04:56:03;15.23;;;6.18;;
60241;SDS011;46103;52.076;113.488;2022-12-11T04:59:08;18.42;;;6.45;;
60241;SDS011;46103;52.076;113.488;2022-12-11T05:02:12;29.70;;;8.45;;
60241;SDS011;46103;52.076;113.488;2022-12-11T05:05:16;21.75;;;6.90;;
60241;SDS011;46103;52.076;113.488;2022-12-11T05:08:20;18.17;;;5.40;;
60241;SDS011;46103;52.076;113.488;2022-12-11T05:11:24;13.45;;;4.40;;
60241;SDS011;46103;52.076;113.488;2022-12-11T05:14:27;11.63;;;3.88;;
60241;SDS011;46103;52.076;113.488;2022-12-11T05:17:33;18.30;;;6.13;;
60241;SDS011;46103;52.076;113.488;2022-12-11T05:20:37;14.07;;;6.20;;
60241;SDS011;46103;52.076;113.488;2022-12-11T05:23:41;21.63;;;6.55;;
60241;SDS011;46103;52.076;113.488;2022-12-11T05:26:44;22.20;;;8.18;;
60241;SDS011;46103;52.076;113.488;2022-12-11T05:29:48;9.70;;;5.38;;
60241;SDS011;46103;52.076;113.488;2022-12-11T05:33:00;15.00;;;4.78;;
60241;SDS011;46103;52.076;113.488;2022-12-11T05:36:05;15.93;;;5.68;;
60241;SDS011;46103;52.076;113.488;2022-12-11T05:39:09;13.65;;;5.30;;
60241;SDS011;46103;52.076;113.488;2022-12-11T05:42:14;9.75;;;3.70;;
60241;SDS011;46103;52.076;113.488;2022-12-11T05:45:17;12.10;;;5.00;;
60241;SDS011;46103;52.076;113.488;2022-12-11T05:48:21;14.43;;;4.22;;
60241;SDS011;46103;52.076;113.488;2022-12-11T05:51:25;15.07;;;5.35;;
60241;SDS011;46103;52.076;113.488;2022-12-11T05:54:30;19.70;;;5.95;;
60241;SDS011;46103;52.076;113.488;2022-12-11T05:57:33;15.27;;;6.35;;
60241;SDS011;46103;52.076;113.488;2022-12-11T06:00:39;25.90;;;8.05;;
60241;SDS011;46103;52.076;113.488;2022-12-11T06:03:43;24.73;;;9.23;;
60241;SDS011;46103;52.076;113.488;2022-12-11T06:06:47;33.00;;;10.55;;
60241;SDS011;46103;52.076;113.488;2022-12-11T06:09:51;27.10;;;7.45;;
60241;SDS011;46103;52.076;113.488;2022-12-11T06:12:54;30.40;;;8.43;;
60241;SDS011;46103;52.076;113.488;2022-12-11T06:16:01;20.77;;;7.28;;
60241;SDS011;46103;52.076;113.488;2022-12-11T06:19:13;19.52;;;7.55;;
60241;SDS011;46103;52.076;113.488;2022-12-11T06:22:17;26.63;;;7.50;;
60241;SDS011;46103;52.076;113.488;2022-12-11T06:25:21;16.92;;;6.07;;
60241;SDS011;46103;52.076;113.488;2022-12-11T06:28:25;20.10;;;6.03;;
60241;SDS011;46103;52.076;113.488;2022-12-11T06:31:29;26.40;;;8.32;;
60241;SDS011;46103;52.076;113.488;2022-12-11T06:34:32;15.10;;;5.93;;
60241;SDS011;46103;52.076;113.488;2022-12-11T06:37:36;16.98;;;5.80;;
60241;SDS011;46103;52.076;113.488;2022-12-11T06:40:40;12.82;;;5.22;;
60241;SDS011;46103;52.076;113.488;2022-12-11T06:43:44;12.70;;;4.90;;
60241;SDS011;46103;52.076;113.488;2022-12-11T06:46:48;19.42;;;7.15;;
60241;SDS011;46103;52.076;113.488;2022-12-11T06:49:51;24.50;;;7.95;;
60241;SDS011;46103;52.076;113.488;2022-12-11T06:52:55;14.80;;;5.72;;
60241;SDS011;46103;52.076;113.488;2022-12-11T06:56:06;15.02;;;5.60;;
60241;SDS011;46103;52.076;113.488;2022-12-11T06:59:12;18.63;;;7.03;;
60241;SDS011;46103;52.076;113.488;2022-12-11T07:02:19;24.13;;;7.13;;
60241;SDS011;46103;52.076;113.488;2022-12-11T07:05:23;10.65;;;4.32;;
60241;SDS011;46103;52.076;113.488;2022-12-11T07:08:27;13.77;;;5.75;;
60241;SDS011;46103;52.076;113.488;2022-12-11T07:11:31;11.05;;;4.57;;
60241;SDS011;46103;52.076;113.488;2022-12-11T07:14:35;14.68;;;5.15;;
60241;SDS011;46103;52.076;113.488;2022-12-11T07:17:38;17.50;;;5.40;;
60241;SDS011;46103;52.076;113.488;2022-12-11T07:20:41;21.63;;;8.25;;
60241;SDS011;46103;52.076;113.488;2022-12-11T07:23:45;23.50;;;8.50;;
60241;SDS011;46103;52.076;113.488;2022-12-11T07:26:50;26.42;;;10.02;;
60241;SDS011;46103;52.076;113.488;2022-12-11T07:29:54;38.67;;;12.60;;
60241;SDS011;46103;52.076;113.488;2022-12-11T07:32:58;43.95;;;12.73;;
60241;SDS011;46103;52.076;113.488;2022-12-11T07:36:02;42.30;;;15.40;;
60241;SDS011;46103;52.076;113.488;2022-12-11T07:39:09;36.03;;;12.98;;
60241;SDS011;46103;52.076;113.488;2022-12-11T07:42:14;33.22;;;11.80;;
60241;SDS011;46103;52.076;113.488;2022-12-11T07:45:17;47.22;;;19.23;;
60241;SDS011;46103;52.076;113.488;2022-12-11T07:48:20;62.90;;;19.80;;
60241;SDS011;46103;52.076;113.488;2022-12-11T07:51:28;52.38;;;22.08;;
60241;SDS011;46103;52.076;113.488;2022-12-11T07:54:32;57.72;;;21.08;;
60241;SDS011;46103;52.076;113.488;2022-12-11T07:57:35;69.90;;;24.77;;
60241;SDS011;46103;52.076;113.488;2022-12-11T08:00:39;66.45;;;23.95;;
60241;SDS011;46103;52.076;113.488;2022-12-11T08:03:42;62.85;;;21.25;;
60241;SDS011;46103;52.076;113.488;2022-12-11T08:06:46;73.35;;;24.75;;
60241;SDS011;46103;52.076;113.488;2022-12-11T08:09:50;67.28;;;22.75;;
60241;SDS011;46103;52.076;113.488;2022-12-11T08:12:53;65.43;;;23.50;;
60241;SDS011;46103;52.076;113.488;2022-12-11T08:15:57;98.13;;;32.17;;
60241;SDS011;46103;52.076;113.488;2022-12-11T08:19:01;117.28;;;38.08;;
60241;SDS011;46103;52.076;113.488;2022-12-11T08:22:04;147.02;;;44.80;;
60241;SDS011;46103;52.076;113.488;2022-12-11T08:25:08;112.70;;;37.45;;
60241;SDS011;46103;52.076;113.488;2022-12-11T08:28:13;113.82;;;35.05;;
60241;SDS011;46103;52.076;113.488;2022-12-11T08:31:16;102.07;;;31.63;;
60241;SDS011;46103;52.076;113.488;2022-12-11T08:34:21;79.03;;;26.10;;
60241;SDS011;46103;52.076;113.488;2022-12-11T08:37:24;82.85;;;27.13;;
60241;SDS011;46103;52.076;113.488;2022-12-11T08:40:27;73.70;;;23.45;;
60241;SDS011;46103;52.076;113.488;2022-12-11T08:43:32;68.38;;;22.48;;
60241;SDS011;46103;52.076;113.488;2022-12-11T08:46:36;55.05;;;19.88;;
60241;SDS011;46103;52.076;113.488;2022-12-11T08:49:40;73.28;;;21.65;;
60241;SDS011;46103;52.076;113.488;2022-12-11T08:52:45;83.90;;;24.17;;
60241;SDS011;46103;52.076;113.488;2022-12-11T08:55:49;80.55;;;25.95;;
60241;SDS011;46103;52.076;113.488;2022-12-11T08:58:52;84.25;;;26.27;;
60241;SDS011;46103;52.076;113.488;2022-12-11T09:01:56;100.30;;;28.52;;
60241;SDS011;46103;52.076;113.488;2022-12-11T09:05:00;68.75;;;23.10;;
60241;SDS011;46103;52.076;113.488;2022-12-11T09:08:03;63.95;;;22.00;;
60241;SDS011;46103;52.076;113.488;2022-12-11T09:11:09;63.35;;;21.45;;
60241;SDS011;46103;52.076;113.488;2022-12-11T09:14:17;59.78;;;19.90;;
60241;SDS011;46103;52.076;113.488;2022-12-11T09:17:20;65.15;;;20.25;;
60241;SDS011;46103;52.076;113.488;2022-12-11T09:20:24;62.85;;;20.65;;
60241;SDS011;46103;52.076;113.488;2022-12-11T09:23:27;93.80;;;26.77;;
60241;SDS011;46103;52.076;113.488;2022-12-11T09:26:31;72.85;;;22.85;;
60241;SDS011;46103;52.076;113.488;2022-12-11T09:29:34;71.65;;;24.25;;
60241;SDS011;46103;52.076;113.488;2022-12-11T09:32:38;80.47;;;26.27;;
60241;SDS011;46103;52.076;113.488;2022-12-11T09:35:42;73.25;;;22.98;;
60241;SDS011;46103;52.076;113.488;2022-12-11T09:38:46;64.15;;;21.02;;
60241;SDS011;46103;52.076;113.488;2022-12-11T09:45:09;66.07;;;21.48;;
60241;SDS011;46103;52.076;113.488;2022-12-11T09:48:16;31.75;;;11.32;;
60241;SDS011;46103;52.076;113.488;2022-12-11T09:51:35;41.65;;;14.73;;
60241;SDS011;46103;52.076;113.488;2022-12-11T09:54:49;56.80;;;20.75;;
60241;SDS011;46103;52.076;113.488;2022-12-11T09:58:03;71.60;;;22.85;;
60241;SDS011;46103;52.076;113.488;2022-12-11T10:07:33;52.67;;;14.93;;
60241;SDS011;46103;52.076;113.488;2022-12-11T10:18:04;40.67;;;15.95;;
60241;SDS011;46103;52.076;113.488;2022-12-11T10:21:15;42.60;;;15.75;;
60241;SDS011;46103;52.076;113.488;2022-12-11T10:28:10;37.13;;;13.90;;
60241;SDS011;46103;52.076;113.488;2022-12-11T10:31:21;45.47;;;15.55;;
60241;SDS011;46103;52.076;113.488;2022-12-11T10:34:36;41.22;;;14.60;;
60241;SDS011;46103;52.076;113.488;2022-12-11T10:37:47;33.72;;;13.38;;
60241;SDS011;46103;52.076;113.488;2022-12-11T10:40:53;40.75;;;14.10;;
60241;SDS011;46103;52.076;113.488;2022-12-11T10:43:59;38.78;;;14.38;;
60241;SDS011;46103;52.076;113.488;2022-12-11T10:47:10;71.87;;;25.40;;
60241;SDS011;46103;52.076;113.488;2022-12-11T10:50:20;94.55;;;28.08;;
60241;SDS011;46103;52.076;113.488;2022-12-11T10:53:26;99.00;;;33.80;;
60241;SDS011;46103;52.076;113.488;2022-12-11T10:56:32;100.85;;;35.08;;
60241;SDS011;46103;52.076;113.488;2022-12-11T10:59:48;78.25;;;27.13;;
60241;SDS011;46103;52.076;113.488;2022-12-11T11:02:51;61.75;;;21.10;;
60241;SDS011;46103;52.076;113.488;2022-12-11T11:06:03;66.55;;;22.63;;
60241;SDS011;46103;52.076;113.488;2022-12-11T11:09:33;100.35;;;32.83;;
60241;SDS011;46103;52.076;113.488;2022-12-11T11:12:42;112.53;;;34.22;;
60241;SDS011;46103;52.076;113.488;2022-12-11T11:15:59;121.45;;;35.58;;
60241;SDS011;46103;52.076;113.488;2022-12-11T11:19:05;134.93;;;41.28;;
60241;SDS011;46103;52.076;113.488;2022-12-11T11:22:13;167.18;;;49.47;;
60241;SDS011;46103;52.076;113.488;2022-12-11T11:25:21;214.90;;;62.20;;
60241;SDS011;46103;52.076;113.488;2022-12-11T11:28:27;257.15;;;76.85;;
60241;SDS011;46103;52.076;113.488;2022-12-11T11:31:35;255.85;;;76.13;;
60241;SDS011;46103;52.076;113.488;2022-12-11T11:34:39;250.88;;;82.28;;
60241;SDS011;46103;52.076;113.488;2022-12-11T11:37:51;363.08;;;120.88;;
60241;SDS011;46103;52.076;113.488;2022-12-11T11:41:11;353.58;;;115.47;;
60241;SDS011;46103;52.076;113.488;2022-12-11T11:44:32;374.13;;;113.63;;
60241;SDS011;46103;52.076;113.488;2022-12-11T11:47:41;334.70;;;108.60;;
60241;SDS011;46103;52.076;113.488;2022-12-11T11:50:56;401.75;;;131.30;;
60241;SDS011;46103;52.076;113.488;2022-12-11T11:54:00;422.50;;;137.68;;
60241;SDS011;46103;52.076;113.488;2022-12-11T11:57:28;397.25;;;125.85;;
60241;SDS011;46103;52.076;113.488;2022-12-11T12:00:44;322.90;;;109.80;;
60241;SDS011;46103;52.076;113.488;2022-12-11T12:03:48;311.08;;;97.68;;
60241;SDS011;46103;52.076;113.488;2022-12-11T12:10:46;246.82;;;75.60;;
60241;SDS011;46103;52.076;113.488;2022-12-11T12:21:29;179.10;;;53.90;;
60241;SDS011;46103;52.076;113.488;2022-12-11T12:28:21;157.40;;;48.50;;
60241;SDS011;46103;52.076;113.488;2022-12-11T12:35:34;118.10;;;37.05;;
60241;SDS011;46103;52.076;113.488;2022-12-11T12:48:50;69.32;;;23.00;;
60241;SDS011;46103;52.076;113.488;2022-12-11T12:51:56;79.95;;;28.83;;
60241;SDS011;46103;52.076;113.488;2022-12-11T12:55:02;67.97;;;23.15;;
60241;SDS011;46103;52.076;113.488;2022-12-11T12:58:44;80.15;;;24.98;;
60241;SDS011;46103;52.076;113.488;2022-12-11T13:01:49;58.00;;;21.80;;
60241;SDS011;46103;52.076;113.488;2022-12-11T13:05:00;69.45;;;20.65;;
60241;SDS011;46103;52.076;113.488;2022-12-11T13:08:08;47.17;;;18.30;;
60241;SDS011;46103;52.076;113.488;2022-12-11T13:11:15;45.42;;;16.55;;
60241;SDS011;46103;52.076;113.488;2022-12-11T13:17:37;42.78;;;17.15;;
60241;SDS011;46103;52.076;113.488;2022-12-11T13:20:45;44.10;;;15.75;;
60241;SDS011;46103;52.076;113.488;2022-12-11T13:23:53;72.68;;;23.95;;
60241;SDS011;46103;52.076;113.488;2022-12-11T13:27:08;72.82;;;25.10;;
60241;SDS011;46103;52.076;113.488;2022-12-11T13:33:16;58.92;;;22.95;;
60241;SDS011;46103;52.076;113.488;2022-12-11T13:39:30;74.20;;;25.55;;
60241;SDS011;46103;52.076;113.488;2022-12-11T13:42:47;77.43;;;28.23;;
60241;SDS011;46103;52.076;113.488;2022-12-11T13:45:57;53.53;;;20.85;;
60241;SDS011;46103;52.076;113.488;2022-12-11T13:49:07;78.97;;;27.85;;
60241;SDS011;46103;52.076;113.488;2022-12-11T13:52:25;84.88;;;27.85;;
60241;SDS011;46103;52.076;113.488;2022-12-11T13:55:31;46.45;;;18.60;;
60241;SDS011;46103;52.076;113.488;2022-12-11T13:58:37;84.75;;;25.58;;
60241;SDS011;46103;52.076;113.488;2022-12-11T14:01:41;54.63;;;17.70;;
60241;SDS011;46103;52.076;113.488;2022-12-11T14:04:46;83.32;;;28.00;;
60241;SDS011;46103;52.076;113.488;2022-12-11T14:07:53;68.72;;;22.90;;
60241;SDS011;46103;52.076;113.488;2022-12-11T14:11:00;62.78;;;24.27;;
60241;SDS011;46103;52.076;113.488;2022-12-11T14:14:05;82.50;;;24.17;;
60241;SDS011;46103;52.076;113.488;2022-12-11T14:17:29;66.30;;;24.80;;
60241;SDS011;46103;52.076;113.488;2022-12-11T14:20:35;72.72;;;23.55;;
60241;SDS011;46103;52.076;113.488;2022-12-11T14:23:39;40.88;;;14.82;;
60241;SDS011;46103;52.076;113.488;2022-12-11T14:26:48;67.43;;;21.63;;
60241;SDS011;46103;52.076;113.488;2022-12-11T14:29:54;68.55;;;22.05;;
60241;SDS011;46103;52.076;113.488;2022-12-11T14:32:58;64.55;;;22.17;;
60241;SDS011;46103;52.076;113.488;2022-12-11T14:36:05;68.43;;;23.88;;
60241;SDS011;46103;52.076;113.488;2022-12-11T14:39:13;46.38;;;18.08;;
60241;SDS011;46103;52.076;113.488;2022-12-11T14:42:41;63.47;;;19.88;;
60241;SDS011;46103;52.076;113.488;2022-12-11T14:45:48;46.90;;;17.17;;
60241;SDS011;46103;52.076;113.488;2022-12-11T14:48:59;38.40;;;12.30;;
60241;SDS011;46103;52.076;113.488;2022-12-11T14:52:26;54.00;;;16.30;;
60241;SDS011;46103;52.076;113.488;2022-12-11T14:55:37;22.27;;;9.75;;
60241;SDS011;46103;52.076;113.488;2022-12-11T14:58:42;37.10;;;13.25;;
60241;SDS011;46103;52.076;113.488;2022-12-11T15:02:00;32.83;;;10.35;;
60241;SDS011;46103;52.076;113.488;2022-12-11T15:05:16;31.00;;;8.88;;
60241;SDS011;46103;52.076;113.488;2022-12-11T15:11:29;22.15;;;9.80;;
60241;SDS011;46103;52.076;113.488;2022-12-11T15:14:33;19.15;;;7.90;;
60241;SDS011;46103;52.076;113.488;2022-12-11T15:17:37;23.80;;;7.95;;
60241;SDS011;46103;52.076;113.488;2022-12-11T15:20:42;23.55;;;8.93;;
60241;SDS011;46103;52.076;113.488;2022-12-11T15:23:53;8.90;;;6.03;;
60241;SDS011;46103;52.076;113.488;2022-12-11T15:26:58;28.35;;;9.30;;
60241;SDS011;46103;52.076;113.488;2022-12-11T15:33:28;23.58;;;8.55;;
60241;SDS011;46103;52.076;113.488;2022-12-11T15:36:35;31.92;;;8.65;;
60241;SDS011;46103;52.076;113.488;2022-12-11T15:39:39;29.70;;;9.65;;
60241;SDS011;46103;52.076;113.488;2022-12-11T15:42:42;30.10;;;9.10;;
60241;SDS011;46103;52.076;113.488;2022-12-11T15:45:47;40.22;;;11.63;;
60241;SDS011;46103;52.076;113.488;2022-12-11T15:48:50;30.63;;;11.20;;
60241;SDS011;46103;52.076;113.488;2022-12-11T15:51:55;34.35;;;10.32;;
60241;SDS011;46103;52.076;113.488;2022-12-11T15:54:58;13.90;;;6.22;;
60241;SDS011;46103;52.076;113.488;2022-12-11T15:58:11;21.10;;;6.25;;
60241;SDS011;46103;52.076;113.488;2022-12-11T16:01:18;18.77;;;6.65;;
60241;SDS011;46103;52.076;113.488;2022-12-11T16:04:22;13.88;;;6.40;;
60241;SDS011;46103;52.076;113.488;2022-12-11T16:07:25;27.23;;;8.20;;
60241;SDS011;46103;52.076;113.488;2022-12-11T16:10:28;13.73;;;5.47;;
60241;SDS011;46103;52.076;113.488;2022-12-11T16:13:32;17.58;;;6.47;;
60241;SDS011;46103;52.076;113.488;2022-12-11T16:16:36;18.00;;;8.25;;
60241;SDS011;46103;52.076;113.488;2022-12-11T16:19:39;17.45;;;5.90;;
60241;SDS011;46103;52.076;113.488;2022-12-11T16:22:43;15.07;;;6.15;;
60241;SDS011;46103;52.076;113.488;2022-12-11T16:25:46;22.10;;;6.45;;
60241;SDS011;46103;52.076;113.488;2022-12-11T16:28:50;8.98;;;3.55;;
60241;SDS011;46103;52.076;113.488;2022-12-11T16:31:53;12.07;;;5.10;;
60241;SDS011;46103;52.076;113.488;2022-12-11T16:34:57;8.02;;;2.53;;
60241;SDS011;46103;52.076;113.488;2022-12-11T16:38:05;5.82;;;3.22;;
60241;SDS011;46103;52.076;113.488;2022-12-11T16:41:08;12.98;;;4.25;;
60241;SDS011;46103;52.076;113.488;2022-12-11T16:44:11;8.43;;;2.70;;
60241;SDS011;46103;52.076;113.488;2022-12-11T16:47:15;7.65;;;3.72;;
60241;SDS011;46103;52.076;113.488;2022-12-11T16:50:19;5.75;;;2.60;;
60241;SDS011;46103;52.076;113.488;2022-12-11T16:53:23;4.03;;;2.03;;
60241;SDS011;46103;52.076;113.488;2022-12-11T16:56:27;7.45;;;3.13;;
60241;SDS011;46103;52.076;113.488;2022-12-11T16:59:31;8.13;;;3.13;;
60241;SDS011;46103;52.076;113.488;2022-12-11T17:02:38;3.78;;;1.90;;
60241;SDS011;46103;52.076;113.488;2022-12-11T17:05:42;8.45;;;2.67;;
60241;SDS011;46103;52.076;113.488;2022-12-11T17:08:46;4.03;;;2.40;;
60241;SDS011;46103;52.076;113.488;2022-12-11T17:11:51;5.03;;;2.53;;
60241;SDS011;46103;52.076;113.488;2022-12-11T17:14:55;2.83;;;1.92;;
60241;SDS011;46103;52.076;113.488;2022-12-11T17:17:58;3.90;;;2.40;;
60241;SDS011;46103;52.076;113.488;2022-12-11T17:21:06;7.15;;;3.30;;
60241;SDS011;46103;52.076;113.488;2022-12-11T17:24:20;7.38;;;3.08;;
60241;SDS011;46103;52.076;113.488;2022-12-11T17:27:23;5.30;;;2.40;;
60241;SDS011;46103;52.076;113.488;2022-12-11T17:30:26;4.88;;;2.88;;
60241;SDS011;46103;52.076;113.488;2022-12-11T17:33:29;7.25;;;3.13;;
60241;SDS011;46103;52.076;113.488;2022-12-11T17:36:32;6.95;;;3.05;;
60241;SDS011;46103;52.076;113.488;2022-12-11T17:39:36;7.80;;;2.90;;
60241;SDS011;46103;52.076;113.488;2022-12-11T17:42:40;4.50;;;1.92;;
60241;SDS011;46103;52.076;113.488;2022-12-11T17:45:47;7.30;;;3.45;;
60241;SDS011;46103;52.076;113.488;2022-12-11T17:48:54;4.38;;;2.50;;
60241;SDS011;46103;52.076;113.488;2022-12-11T17:52:00;7.38;;;3.33;;
60241;SDS011;46103;52.076;113.488;2022-12-11T17:55:04;7.22;;;2.70;;
60241;SDS011;46103;52.076;113.488;2022-12-11T17:58:09;7.55;;;2.75;;
60241;SDS011;46103;52.076;113.488;2022-12-11T18:01:18;11.60;;;3.25;;
60241;SDS011;46103;52.076;113.488;2022-12-11T18:04:22;4.03;;;2.28;;
60241;SDS011;46103;52.076;113.488;2022-12-11T18:07:25;3.35;;;1.88;;
60241;SDS011;46103;52.076;113.488;2022-12-11T18:10:29;5.68;;;2.65;;
60241;SDS011;46103;52.076;113.488;2022-12-11T18:13:32;6.80;;;2.85;;
60241;SDS011;46103;52.076;113.488;2022-12-11T18:16:36;6.78;;;2.63;;
60241;SDS011;46103;52.076;113.488;2022-12-11T18:19:40;6.55;;;2.50;;
60241;SDS011;46103;52.076;113.488;2022-12-11T18:22:47;5.15;;;2.65;;
60241;SDS011;46103;52.076;113.488;2022-12-11T18:25:52;4.55;;;2.42;;
60241;SDS011;46103;52.076;113.488;2022-12-11T18:28:56;6.68;;;2.75;;
60241;SDS011;46103;52.076;113.488;2022-12-11T18:31:59;5.15;;;2.30;;
60241;SDS011;46103;52.076;113.488;2022-12-11T18:35:03;6.82;;;2.65;;
60241;SDS011;46103;52.076;113.488;2022-12-11T18:38:07;7.32;;;2.90;;
60241;SDS011;46103;52.076;113.488;2022-12-11T18:41:14;3.53;;;2.63;;
60241;SDS011;46103;52.076;113.488;2022-12-11T18:44:18;7.28;;;3.63;;
60241;SDS011;46103;52.076;113.488;2022-12-11T18:47:24;6.97;;;2.90;;
60241;SDS011;46103;52.076;113.488;2022-12-11T18:50:28;6.43;;;3.33;;
60241;SDS011;46103;52.076;113.488;2022-12-11T18:53:32;8.77;;;2.78;;
60241;SDS011;46103;52.076;113.488;2022-12-11T18:56:36;7.72;;;3.30;;
60241;SDS011;46103;52.076;113.488;2022-12-11T18:59:40;3.55;;;2.42;;
60241;SDS011;46103;52.076;113.488;2022-12-11T19:02:44;6.95;;;2.50;;
60241;SDS011;46103;52.076;113.488;2022-12-11T19:05:48;2.78;;;1.88;;
60241;SDS011;46103;52.076;113.488;2022-12-11T19:08:52;5.25;;;2.58;;
60241;SDS011;46103;52.076;113.488;2022-12-11T19:11:55;6.53;;;3.10;;